Time;durP1;ratioP1;P1;durP2;ratioP2;P2;SDS_P1;SDS_P2;PMS_P1;PMS_P2;Temp;Humidity;BMP_temperature;BMP_pressure;BME280_temperature;BME280_humidity;BME280_pressure;Samples;Min_cycle;Max_cycle;Signal;HPM_P1;HPM_P2
2022/06/27 00:00:25;;;;;;;1.00;0.90;;;21.70;62.20;;;21.02;68.71;95538.75;4989832;28;20061;-67
2022/06/27 00:02:51;;;;;;;0.93;0.50;;;21.70;62.00;;;21.00;69.14;95535.53;4977871;28;20041;-66
2022/06/27 00:05:17;;;;;;;4.00;0.80;;;21.70;62.30;;;20.97;68.98;95536.88;5005365;28;20525;-66
2022/06/27 00:07:43;;;;;;;1.30;0.77;;;21.60;62.30;;;20.94;69.16;95533.94;5005430;28;20041;-66
2022/06/27 00:10:09;;;;;;;2.60;0.90;;;21.60;62.70;;;20.94;68.96;95539.28;5003235;28;20030;-66
2022/06/27 00:12:35;;;;;;;2.45;0.75;;;21.60;62.50;;;20.93;69.20;95533.13;5000117;28;20034;-67
2022/06/27 00:15:01;;;;;;;4.43;0.80;;;21.60;62.50;;;20.88;69.08;95524.31;5002946;28;20064;-66
2022/06/27 00:17:29;;;;;;;1.60;0.70;;;21.60;62.70;;;20.85;69.87;95524.84;4989106;28;20096;-66
2022/06/27 00:19:55;;;;;;;1.50;0.75;;;21.60;63.00;;;20.83;69.91;95521.66;4991832;28;20048;-66
2022/06/27 00:22:21;;;;;;;3.78;1.00;;;21.60;63.00;;;20.83;69.21;95518.97;5003597;28;20109;-67
2022/06/27 00:24:47;;;;;;;3.60;0.80;;;21.60;63.00;;;20.80;69.63;95515.75;5003692;28;20081;-66
2022/06/27 00:27:12;;;;;;;1.90;0.68;;;21.60;63.10;;;20.76;70.24;95522.69;5002268;28;20056;-66
2022/06/27 00:29:40;;;;;;;0.77;0.70;;;21.60;63.10;;;20.75;69.83;95526.44;4990541;28;20533;-67
2022/06/27 00:32:06;;;;;;;1.48;0.90;;;21.50;63.30;;;20.73;71.05;95519.75;5000115;28;20030;-66
2022/06/27 00:34:32;;;;;;;1.73;1.33;;;21.50;63.50;;;20.74;70.66;95524.84;5001085;28;20069;-68
2022/06/27 00:36:58;;;;;;;1.73;1.00;;;21.60;63.70;;;20.73;70.62;95533.94;4995172;28;20147;-66
2022/06/27 00:39:24;;;;;;;2.03;0.90;;;21.50;63.70;;;20.72;70.44;95550.22;4991674;28;20057;-67
2022/06/27 00:41:49;;;;;;;1.05;0.90;;;21.40;64.00;;;20.68;71.00;95555.31;5004974;28;20061;-67
2022/06/27 00:44:41;;;;;;;1.65;0.90;;;21.40;64.30;;;20.68;72.23;95563.31;5001535;28;20057;-65
2022/06/27 00:47:09;;;;;;;1.35;0.80;;;21.40;64.50;;;20.65;71.59;95568.41;5003224;28;20113;-66
2022/06/27 00:49:35;;;;;;;4.53;1.08;;;21.40;64.80;;;20.63;72.53;95570.53;4988675;28;20034;-67
2022/06/27 00:52:03;;;;;;;1.92;0.80;;;21.40;65.20;;;20.59;72.59;95580.13;4986982;28;20678;-66
2022/06/27 00:54:29;;;;;;;0.93;0.65;;;21.30;65.60;;;20.53;73.18;95587.34;4990326;28;20082;-67
2022/06/27 00:56:55;;;;;;;1.45;0.77;;;21.30;66.10;;;20.50;74.57;95593.22;4977859;28;20405;-67
2022/06/27 00:59:21;;;;;;;1.23;0.80;;;21.20;66.60;;;20.43;73.90;95587.34;5002924;28;20077;-66
2022/06/27 01:01:47;;;;;;;1.50;1.00;;;21.10;66.80;;;20.37;74.20;95583.00;4990963;28;20044;-66
2022/06/27 01:04:13;;;;;;;1.10;0.80;;;21.10;67.00;;;20.34;75.48;95586.19;5004481;28;20117;-66
2022/06/27 01:06:38;;;;;;;1.10;0.90;;;21.00;67.20;;;20.29;75.06;95586.19;5004366;28;20109;-66
2022/06/27 01:09:04;;;;;;;1.90;1.02;;;21.00;67.60;;;20.25;75.83;95579.75;5016912;28;20038;-66
2022/06/27 01:11:30;;;;;;;1.25;0.80;;;21.00;67.80;;;20.22;76.69;95578.41;5002204;28;20037;-66
2022/06/27 01:13:56;;;;;;;1.75;1.17;;;20.90;67.90;;;20.19;75.78;95590.44;4999254;28;20069;-66
2022/06/27 01:16:23;;;;;;;2.53;0.85;;;20.90;68.20;;;20.16;76.10;95582.94;5006405;28;20084;-67
2022/06/27 01:18:49;;;;;;;2.97;1.08;;;20.90;68.30;;;20.13;77.59;95598.66;4985529;28;20101;-66
2022/06/27 01:21:23;;;;;;;1.40;1.08;;;20.80;68.70;;;20.08;78.04;95593.31;5003279;28;20120;-66
2022/06/27 01:23:49;;;;;;;1.38;1.00;;;20.80;68.80;;;20.05;77.56;95609.84;5004949;28;20054;-68
2022/06/27 01:26:16;;;;;;;1.45;0.90;;;20.70;69.10;;;20.00;78.32;95597.28;5003247;28;20363;-67
2022/06/27 01:28:42;;;;;;;1.60;0.95;;;20.70;69.00;;;19.96;78.42;95606.09;4986709;28;20034;-68
2022/06/27 01:31:12;;;;;;;2.03;1.10;;;20.60;69.00;;;19.93;78.60;95610.09;5005413;28;20045;-65
2022/06/27 01:33:37;;;;;;;1.45;1.10;;;20.60;69.10;;;19.91;79.10;95619.38;4970132;28;20452;-66
2022/06/27 01:38:51;;;;;;;1.92;1.13;;;20.60;69.20;;;19.88;78.50;95618.03;4988220;28;20057;-66
2022/06/27 01:41:17;;;;;;;1.60;0.90;;;20.60;69.70;;;19.86;80.05;95610.28;5005002;28;20050;-66
2022/06/27 01:43:44;;;;;;;3.90;1.00;;;20.60;69.60;;;19.82;79.74;95600.41;4986754;28;20402;-65
2022/06/27 01:46:09;;;;;;;1.30;0.82;;;20.60;69.90;;;19.80;79.69;95607.88;4973218;28;20057;-66
2022/06/27 01:48:35;;;;;;;2.10;0.88;;;20.60;69.70;;;19.79;78.79;95603.59;4986647;28;20053;-67
2022/06/27 01:51:01;;;;;;;2.83;1.15;;;20.60;69.40;;;19.79;79.73;95616.94;4968488;28;20111;-66
2022/06/27 01:53:27;;;;;;;2.97;1.30;;;20.60;69.50;;;19.77;79.94;95616.38;4986954;28;20072;-66
2022/06/27 01:55:52;;;;;;;1.58;1.00;;;20.50;69.50;;;19.74;80.09;95608.91;4985835;28;20111;-67
2022/06/27 01:58:18;;;;;;;7.63;0.98;;;20.50;69.80;;;19.73;79.96;95615.31;4999957;28;20039;-66
2022/06/27 02:00:44;;;;;;;2.80;1.00;;;20.40;70.30;;;19.72;81.03;95616.38;5006348;28;20030;-66
2022/06/27 02:03:09;;;;;;;2.95;1.15;;;20.50;70.30;;;19.71;80.94;95612.91;5009743;28;20080;-67
2022/06/27 02:05:35;;;;;;;4.28;1.15;;;20.50;70.20;;;19.68;80.67;95612.59;4989477;28;20039;-66
2022/06/27 02:08:01;;;;;;;1.85;1.02;;;20.40;70.20;;;19.65;81.08;95618.44;4975998;28;20054;-66
2022/06/27 02:10:27;;;;;;;1.58;1.05;;;20.50;70.40;;;19.63;81.72;95620.56;4975232;28;20525;-67
2022/06/27 02:12:52;;;;;;;3.42;1.13;;;20.40;70.20;;;19.61;80.92;95622.69;4992966;28;20042;-66
2022/06/27 02:15:18;;;;;;;1.65;1.30;;;20.40;70.40;;;19.57;81.80;95617.88;4975537;28;20448;-66
2022/06/27 02:17:44;;;;;;;3.72;1.80;;;20.30;70.60;;;19.53;81.93;95621.28;5007338;28;20026;-66
2022/06/27 02:20:10;;;;;;;10.82;8.60;;;20.30;70.80;;;19.51;81.96;95618.88;5005685;28;20175;-66
2022/06/27 02:22:35;;;;;;;3.80;3.20;;;20.20;70.80;;;19.48;81.14;95624.72;5007139;28;20168;-66
2022/06/27 02:25:01;;;;;;;2.42;1.83;;;20.20;70.90;;;19.43;82.32;95605.19;5007917;28;20406;-66
2022/06/27 02:27:29;;;;;;;3.30;2.47;;;20.10;71.30;;;19.39;82.20;95615.56;5008977;28;20517;-66
2022/06/27 02:29:54;;;;;;;4.63;2.50;;;20.10;71.10;;;19.39;81.75;95684.13;5004736;28;20533;-66
2022/06/27 02:32:20;;;;;;;2.65;1.83;;;20.10;71.10;;;19.26;82.35;95816.03;5009097;28;20038;-66
2022/06/27 02:34:47;;;;;;;2.05;1.13;;;19.70;72.10;;;19.12;83.49;95724.13;4994729;28;20069;-66
2022/06/27 02:37:12;;;;;;;3.22;1.17;;;19.70;71.70;;;19.12;83.40;95774.78;5006232;28;20034;-66
2022/06/27 02:39:40;;;;;;;3.97;1.38;;;19.80;71.50;;;19.09;82.93;95748.63;5019424;28;20125;-66
2022/06/27 02:42:08;;;;;;;5.38;1.20;;;19.80;71.40;;;19.07;82.87;95740.09;4972361;28;20037;-66
2022/06/27 02:44:33;;;;;;;7.13;5.20;;;19.80;71.70;;;19.03;82.79;95792.28;5001868;28;20038;-66
2022/06/27 02:46:59;;;;;;;3.17;2.10;;;19.70;72.10;;;19.01;84.07;95723.25;5003304;28;20038;-70
2022/06/27 02:49:25;;;;;;;8.68;4.60;;;19.80;72.00;;;19.01;83.39;95752.56;4988098;28;20060;-65
2022/06/27 02:52:12;;;;;;;1.80;1.10;;;19.80;72.00;;;19.03;84.83;95749.66;5003198;28;20120;-68
2022/06/27 02:54:47;;;;;;;5.15;1.30;;;19.80;71.80;;;19.02;83.98;95737.38;4991498;28;20045;-67
2022/06/27 02:57:29;;;;;;;3.05;1.15;;;19.90;71.70;;;19.05;84.60;95721.69;4990071;28;20030;-67
2022/06/27 02:59:55;;;;;;;3.28;1.20;;;19.90;71.60;;;19.05;84.23;95702.22;5007586;28;20137;-67
2022/06/27 03:02:21;;;;;;;1.27;1.08;;;19.80;72.00;;;19.05;84.13;95748.34;5006528;28;20053;-67
2022/06/27 03:04:47;;;;;;;3.70;1.02;;;19.90;72.00;;;19.05;84.54;95742.19;5007847;28;20099;-66
2022/06/27 03:07:13;;;;;;;2.65;1.50;;;19.80;72.00;;;19.04;83.94;95733.41;4988819;28;20041;-67
2022/06/27 03:09:39;;;;;;;2.95;1.23;;;19.90;71.80;;;19.06;83.85;95741.94;5007584;28;20125;-66
2022/06/27 03:12:05;;;;;;;3.15;1.20;;;19.90;71.50;;;19.08;84.84;95750.50;5006360;28;20105;-71
2022/06/27 03:14:30;;;;;;;4.22;1.52;;;20.00;71.40;;;19.08;83.57;95753.16;4991323;28;20476;-67
2022/06/27 03:16:56;;;;;;;1.33;1.17;;;19.90;71.40;;;19.09;84.33;95753.97;4987751;28;20057;-67
2022/06/27 03:19:22;;;;;;;3.38;1.67;;;20.00;71.40;;;19.07;84.63;95756.88;4992436;28;20141;-67
2022/06/27 03:21:48;;;;;;;6.10;4.97;;;20.00;71.60;;;19.09;85.04;95748.63;5006385;28;20101;-67
2022/06/27 03:24:13;;;;;;;6.25;3.63;;;20.00;71.60;;;19.12;85.18;95734.81;5007068;28;20037;-66
2022/06/27 03:26:39;;;;;;;3.25;2.08;;;20.10;71.50;;;19.13;84.18;95739.06;5022517;28;20057;-67
2022/06/27 03:29:05;;;;;;;8.23;5.97;;;20.00;71.50;;;19.13;84.59;95733.75;5007420;28;20512;-67
2022/06/27 03:31:31;;;;;;;1.98;1.77;;;20.10;71.70;;;19.12;84.17;95743.59;5007146;28;20048;-67
2022/06/27 03:33:56;;;;;;;2.65;1.50;;;20.10;71.70;;;19.11;85.39;95746.53;5007737;28;20584;-68
2022/06/27 03:36:22;;;;;;;3.83;1.30;;;20.10;71.70;;;19.09;84.31;95744.13;5006524;28;20046;-67
2022/06/27 03:38:48;;;;;;;4.50;1.17;;;20.00;71.90;;;19.09;84.66;95748.63;5008462;28;20038;-66
2022/06/27 03:41:13;;;;;;;5.15;1.30;;;20.10;72.00;;;19.10;85.92;95755.56;5007831;28;20030;-68
2022/06/27 03:43:39;;;;;;;1.80;1.20;;;20.00;72.20;;;19.09;84.86;95753.97;5007427;28;20397;-69
2022/06/27 03:46:05;;;;;;;2.08;1.23;;;20.00;72.40;;;19.06;85.86;95754.47;4989138;28;20049;-68
2022/06/27 03:51:15;;;;;;;2.85;1.25;;;20.00;72.40;;;18.99;85.83;95746.66;5008730;28;20033;-66
2022/06/27 03:53:41;;;;;;;3.70;1.40;;;19.80;72.60;;;18.98;85.83;95745.84;5006979;28;20588;-66
2022/06/27 03:56:06;;;;;;;2.97;1.20;;;19.90;72.10;;;19.00;85.61;95755.44;5009415;28;20030;-65
2022/06/27 03:58:32;;;;;;;2.03;1.20;;;19.90;72.00;;;19.02;85.59;95756.03;4992195;28;20112;-65
2022/06/27 04:00:58;;;;;;;1.38;1.00;;;20.00;71.80;;;19.03;86.71;95757.66;5010899;28;20088;-65
2022/06/27 04:03:23;;;;;;;4.50;1.30;;;20.00;72.20;;;19.04;86.41;95751.25;4992709;28;20129;-65
2022/06/27 04:05:49;;;;;;;5.60;1.67;;;20.00;72.30;;;19.03;86.57;95752.31;5009890;28;20128;-66
2022/06/27 04:08:15;;;;;;;1.83;1.30;;;20.00;72.20;;;19.05;86.12;95742.19;5009844;28;20026;-65
2022/06/27 04:10:41;;;;;;;3.50;1.30;;;20.00;72.20;;;19.07;86.16;95756.88;5004198;28;20549;-66
2022/06/27 04:13:06;;;;;;;2.05;1.10;;;20.10;72.10;;;19.08;86.21;95765.69;5013733;28;20080;-65
2022/06/27 04:15:32;;;;;;;4.32;1.60;;;20.10;72.30;;;19.08;87.29;95758.50;5010016;28;20087;-66
2022/06/27 04:17:58;;;;;;;10.48;8.02;;;20.10;72.70;;;19.08;87.25;95769.16;5009560;28;20044;-66
2022/06/27 04:20:24;;;;;;;5.68;4.15;;;20.10;72.60;;;19.12;87.44;95767.59;5004448;28;20529;-65
2022/06/27 04:22:50;;;;;;;2.92;2.63;;;20.10;72.70;;;19.14;87.87;95762.00;4992293;28;20038;-66
2022/06/27 04:25:15;;;;;;;6.65;1.85;;;20.10;72.90;;;19.15;87.92;95766.28;5010847;28;20049;-65
2022/06/27 04:27:41;;;;;;;3.70;1.77;;;20.10;72.90;;;19.14;88.27;95762.81;5010762;28;20034;-65
2022/06/27 04:30:09;;;;;;;6.38;1.92;;;20.10;73.00;;;19.17;87.52;95766.84;5008715;28;20041;-65
2022/06/27 04:32:35;;;;;;;3.25;2.10;;;20.20;73.00;;;19.17;87.66;95778.31;5000990;28;20072;-65
2022/06/27 04:35:01;;;;;;;3.92;1.40;;;20.20;73.10;;;19.21;88.85;95791.94;5009546;28;20034;-66
2022/06/27 04:37:27;;;;;;;2.63;1.60;;;20.20;73.30;;;19.23;87.65;95784.50;5009537;28;20033;-65
2022/06/27 04:39:54;;;;;;;2.97;1.40;;;20.30;73.00;;;19.24;87.74;95784.28;4992075;28;20111;-65
2022/06/27 04:42:20;;;;;;;2.33;1.55;;;20.30;72.70;;;19.29;88.34;95791.50;5002124;28;20117;-65
2022/06/27 04:44:45;;;;;;;2.47;1.50;;;20.40;72.00;;;19.31;87.75;95792.06;5010473;28;20030;-66
2022/06/27 04:47:13;;;;;;;18.67;15.65;;;20.40;72.00;;;19.35;86.92;95798.50;5009593;28;20421;-66
2022/06/27 04:49:42;;;;;;;13.48;7.63;;;20.40;71.60;;;19.37;86.58;95792.91;5009090;28;20497;-66
2022/06/27 04:52:08;;;;;;;4.07;2.17;;;20.50;71.50;;;19.39;87.08;95794.28;5001049;28;20494;-66
2022/06/27 04:54:35;;;;;;;4.32;1.52;;;20.50;71.20;;;19.40;86.37;95798.53;5008668;28;20417;-66
2022/06/27 04:57:01;;;;;;;3.35;1.20;;;20.40;71.00;;;19.41;85.86;95792.16;5009207;28;20036;-66
2022/06/27 04:59:27;;;;;;;3.10;1.60;;;20.50;71.00;;;19.46;86.43;95786.06;5027512;28;20033;-67
2022/06/27 05:01:53;;;;;;;1.60;1.08;;;20.60;71.10;;;19.50;86.01;95787.19;5000825;28;20026;-66
2022/06/27 05:04:22;;;;;;;4.63;1.30;;;20.60;71.30;;;19.52;86.18;95796.53;4984043;28;20136;-66
2022/06/27 05:06:48;;;;;;;7.47;1.67;;;20.60;70.40;;;19.52;85.16;95796.53;5009241;28;20053;-66
2022/06/27 05:09:14;;;;;;;2.10;1.45;;;20.60;70.10;;;19.52;85.29;95796.53;5008783;28;20045;-66
2022/06/27 05:11:40;;;;;;;3.10;1.40;;;20.60;70.50;;;19.54;85.62;95801.66;4985769;28;20064;-66
2022/06/27 05:14:06;;;;;;;12.05;1.20;;;20.60;70.60;;;19.54;85.93;95802.47;4992492;28;20121;-66
2022/06/27 05:16:32;;;;;;;2.17;1.02;;;20.60;70.30;;;19.56;84.63;95808.34;5008778;28;20192;-66
2022/06/27 05:18:58;;;;;;;4.68;1.50;;;20.60;70.30;;;19.61;85.74;95806.78;5008437;28;20038;-65
2022/06/27 05:21:24;;;;;;;1.77;1.52;;;20.70;70.30;;;19.66;84.90;95812.16;4983088;28;20160;-65
2022/06/27 05:23:52;;;;;;;3.85;1.40;;;20.80;70.20;;;19.67;84.22;95809.25;5000481;28;20026;-66
2022/06/27 05:26:18;;;;;;;2.15;1.50;;;20.80;70.20;;;19.72;85.44;95827.19;5008231;28;20040;-66
2022/06/27 05:28:44;;;;;;;1.92;1.50;;;20.80;69.80;;;19.74;84.81;95819.72;5009924;28;20030;-65
2022/06/27 05:31:10;;;;;;;4.38;2.35;;;20.80;70.10;;;19.79;85.51;95811.75;4983056;28;20045;-67
2022/06/27 05:33:37;;;;;;;1.63;1.40;;;21.00;70.40;;;19.84;84.63;95809.94;4988657;28;20035;-66
2022/06/27 05:36:04;;;;;;;8.68;1.58;;;21.00;69.60;;;19.89;85.41;95817.16;4989019;28;20035;-66
2022/06/27 05:38:31;;;;;;;3.22;1.23;;;21.10;69.80;;;19.97;85.43;95826.59;4988466;28;20042;-68
2022/06/27 05:40:57;;;;;;;5.47;1.23;;;21.20;69.80;;;20.03;84.97;95833.59;4997018;28;20034;-66
2022/06/27 05:43:23;;;;;;;2.58;1.50;;;21.30;69.20;;;20.07;84.44;95835.47;5008328;28;20053;-66
2022/06/27 05:45:49;;;;;;;3.55;1.50;;;21.30;69.40;;;20.13;84.37;95828.31;4988571;28;20026;-66
2022/06/27 05:48:15;;;;;;;5.13;1.50;;;21.50;69.40;;;20.22;84.48;95831.34;5001896;28;20030;-66
2022/06/27 05:50:40;;;;;;;2.75;1.30;;;21.60;69.00;;;20.30;84.08;95833.50;4990139;28;20033;-65
2022/06/27 05:53:06;;;;;;;1.80;1.30;;;21.60;68.40;;;20.38;83.66;95833.06;5004266;28;20030;-66
2022/06/27 05:55:32;;;;;;;2.25;1.42;;;21.70;68.30;;;20.45;83.20;95825.66;4992275;28;20085;-66
2022/06/27 05:57:59;;;;;;;6.40;1.60;;;21.80;67.50;;;20.54;83.27;95820.59;4991545;28;20038;-66
2022/06/27 06:00:25;;;;;;;3.35;1.50;;;21.80;67.50;;;20.63;82.98;95817.22;4986738;28;20586;-66
2022/06/27 06:02:53;;;;;;;2.40;1.40;;;22.10;67.30;;;20.73;82.13;95825.28;5008291;28;20034;-66
2022/06/27 06:05:19;;;;;;;1.70;1.50;;;22.10;66.50;;;20.85;81.87;95824.28;4992391;28;20608;-66
2022/06/27 06:07:45;;;;;;;4.47;2.03;;;22.30;66.10;;;20.97;81.62;95828.31;5008091;28;20072;-66
2022/06/27 06:10:12;;;;;;;3.65;1.73;;;22.50;65.90;;;21.07;81.48;95827.56;5007149;28;20034;-66
2022/06/27 06:12:38;;;;;;;1.85;1.42;;;22.50;65.70;;;21.20;80.87;95827.06;4991389;28;20042;-66
2022/06/27 06:15:04;;;;;;;1.30;1.20;;;22.70;65.10;;;21.33;80.35;95831.97;4986403;28;20068;-66
2022/06/27 06:17:33;;;;;;;5.03;1.50;;;22.90;64.90;;;21.48;81.06;95817.00;5000769;28;20044;-66
2022/06/27 06:19:59;;;;;;;2.60;1.50;;;23.20;65.20;;;21.60;80.02;95815.72;5007498;28;20139;-66
2022/06/27 06:22:25;;;;;;;3.03;1.25;;;23.40;63.00;;;21.77;79.94;95820.03;5007567;28;20030;-66
2022/06/27 06:24:51;;;;;;;4.38;1.55;;;23.60;63.10;;;21.91;79.04;95821.91;4990731;28;20117;-66
2022/06/27 06:27:17;;;;;;;2.65;1.20;;;23.80;61.90;;;22.05;78.11;95824.09;5007681;28;20026;-66
2022/06/27 06:29:43;;;;;;;6.20;1.90;;;24.00;61.60;;;22.16;78.92;95815.75;5007661;28;20667;-65
2022/06/27 06:32:09;;;;;;;2.97;1.48;;;24.10;62.00;;;22.31;78.61;95823.81;5007715;28;20033;-65
2022/06/27 06:34:35;;;;;;;2.30;1.42;;;24.40;61.70;;;22.46;78.87;95816.81;5006997;28;20084;-65
2022/06/27 06:37:01;;;;;;;1.85;1.45;;;24.60;61.40;;;22.61;77.82;95814.91;4991574;28;20026;-65
2022/06/27 06:39:27;;;;;;;2.08;1.33;;;24.80;60.00;;;22.76;77.29;95806.03;5007486;28;20072;-65
2022/06/27 06:41:53;;;;;;;4.80;1.80;;;25.10;59.80;;;22.92;75.68;95809.50;5007632;28;20034;-65
2022/06/27 06:44:20;;;;;;;1.23;1.10;;;25.20;57.60;;;23.08;75.18;95819.06;5006212;28;20111;-66
2022/06/27 06:46:46;;;;;;;2.67;1.45;;;25.50;57.40;;;23.23;74.48;95820.91;5010475;28;20513;-65
2022/06/27 06:49:11;;;;;;;1.48;1.20;;;25.60;56.50;;;23.41;74.02;95822.16;4994781;28;20524;-65
2022/06/27 06:51:39;;;;;;;4.93;1.27;;;25.80;56.50;;;23.56;73.47;95814.06;5011329;28;20121;-65
2022/06/27 06:54:06;;;;;;;3.65;1.33;;;25.80;56.10;;;23.68;72.64;95809.13;5010247;28;20484;-68
2022/06/27 06:56:32;;;;;;;1.90;1.40;;;26.00;56.50;;;23.80;72.96;95804.22;5000017;28;20034;-65
2022/06/27 06:58:58;;;;;;;3.78;1.50;;;26.20;56.00;;;23.95;71.18;95810.53;5010439;28;20038;-65
2022/06/27 07:01:25;;;;;;;2.42;1.20;;;26.30;55.00;;;24.11;71.34;95810.16;4994921;28;20115;-67
2022/06/27 07:03:53;;;;;;;1.80;1.30;;;26.60;54.80;;;24.29;71.10;95795.25;4994882;28;20540;-67
2022/06/27 07:06:24;;;;;;;3.88;1.40;;;26.90;53.70;;;24.41;70.51;95792.97;5002005;28;20057;-65
2022/06/27 07:08:53;;;;;;;1.88;1.63;;;27.10;53.40;;;24.55;69.77;95797.69;5010514;28;20033;-65
2022/06/27 07:11:25;;;;;;;3.33;1.38;;;27.20;53.50;;;24.71;67.97;95796.44;5010912;28;20516;-64
2022/06/27 07:13:51;;;;;;;3.42;1.70;;;27.40;52.10;;;24.84;68.08;95801.13;5010478;28;20065;-64
2022/06/27 07:16:21;;;;;;;3.50;1.55;;;27.60;50.40;;;24.96;66.03;95787.28;5006243;28;20366;-66
2022/06/27 07:18:46;;;;;;;4.15;1.67;;;27.60;50.50;;;25.09;66.86;95796.56;5019733;28;20041;-65
2022/06/27 07:21:15;;;;;;;2.45;1.60;;;27.80;50.90;;;25.22;66.76;95785.09;5010306;28;20036;-65
2022/06/27 07:23:40;;;;;;;6.72;1.52;;;28.00;50.80;;;25.35;66.52;95792.47;5009393;28;20371;-65
2022/06/27 07:26:06;;;;;;;3.83;1.35;;;28.20;50.80;;;25.46;65.88;95785.84;5002144;28;20050;-66
2022/06/27 07:28:32;;;;;;;2.65;1.30;;;28.30;50.40;;;25.60;65.93;95792.13;5009329;28;20448;-66
2022/06/27 07:30:59;;;;;;;3.67;1.52;;;28.40;49.70;;;25.75;65.13;95793.00;5010349;28;20034;-67
2022/06/27 07:33:25;;;;;;;2.15;1.40;;;28.60;49.20;;;25.87;64.24;95785.28;4994318;28;20084;-66
2022/06/27 07:35:51;;;;;;;2.30;1.38;;;28.70;47.60;;;25.95;64.01;95792.69;5003354;28;20038;-66
2022/06/27 07:38:16;;;;;;;2.42;1.40;;;28.90;48.10;;;26.07;63.15;95794.94;4998886;28;20065;-66
2022/06/27 07:40:42;;;;;;;1.73;1.20;;;29.20;47.70;;;26.22;63.72;95798.16;5009502;28;20117;-66
2022/06/27 07:43:13;;;;;;;2.58;1.60;;;29.40;47.80;;;26.37;63.40;95796.34;5026818;28;20044;-65
2022/06/27 07:45:39;;;;;;;3.38;2.00;;;29.60;47.40;;;26.53;63.81;95794.97;5010402;28;20136;-65
2022/06/27 07:48:06;;;;;;;3.33;1.45;;;29.80;48.20;;;26.65;62.52;95787.19;5002480;28;20034;-65
2022/06/27 07:50:39;;;;;;;2.58;1.50;;;29.90;46.20;;;26.79;63.13;95793.41;4989538;28;20042;-65
2022/06/27 07:53:19;;;;;;;2.40;1.40;;;30.10;47.80;;;26.99;62.55;95794.13;4990602;28;20509;-65
2022/06/27 07:56:00;;;;;;;3.13;1.47;;;30.40;47.30;;;27.18;60.50;95792.13;5003775;28;20176;-66
2022/06/27 07:58:35;;;;;;;3.22;1.42;;;30.50;45.80;;;27.27;60.80;95797.63;5009335;28;20269;-67
2022/06/27 08:01:10;;;;;;;2.38;1.55;;;30.50;44.80;;;27.41;60.14;95799.19;4994713;28;20038;-67
2022/06/27 08:03:38;;;;;;;1.88;1.30;;;30.70;45.90;;;27.60;62.05;95803.63;5009775;28;20030;-66
2022/06/27 08:06:10;;;;;;;2.10;1.38;;;31.00;47.20;;;27.76;60.83;95799.53;4981829;28;20034;-67
2022/06/27 08:08:37;;;;;;;4.10;1.40;;;31.10;45.50;;;27.94;61.02;95809.38;4985034;28;20037;-68
2022/06/27 08:11:04;;;;;;;1.55;1.30;;;31.40;45.20;;;28.08;59.27;95803.94;4993342;28;20030;-66
2022/06/27 08:13:31;;;;;;;3.58;1.23;;;31.40;43.30;;;28.22;59.91;95811.97;5009532;28;20026;-65
2022/06/27 08:15:58;;;;;;;2.08;1.33;;;31.60;45.10;;;28.37;58.97;95806.22;5004892;28;20120;-66
2022/06/27 08:18:23;;;;;;;2.03;1.35;;;31.80;44.70;;;28.48;58.99;95810.22;5008712;28;20026;-64
2022/06/27 08:20:50;;;;;;;2.97;1.35;;;31.90;44.00;;;28.54;58.59;95814.44;5009179;28;20112;-65
2022/06/27 08:23:17;;;;;;;5.10;1.50;;;32.00;43.30;;;28.65;57.52;95801.41;4993399;28;20081;-66
2022/06/27 08:25:43;;;;;;;1.85;1.33;;;32.10;42.10;;;28.74;56.45;95804.94;5000623;28;20092;-69
2022/06/27 08:28:10;;;;;;;3.70;1.65;;;32.20;42.10;;;28.90;57.21;95794.53;4965170;28;20042;-65
2022/06/27 08:30:37;;;;;;;4.25;1.63;;;32.60;43.30;;;29.09;57.31;95811.34;4973280;28;20027;-65
2022/06/27 08:33:02;;;;;;;2.65;1.40;;;32.70;42.80;;;29.24;57.41;95805.50;4990773;28;20093;-65
2022/06/27 08:35:29;;;;;;;2.05;1.30;;;33.00;42.40;;;29.36;55.92;95795.94;4989668;28;20031;-65
2022/06/27 08:37:55;;;;;;;2.78;1.38;;;32.90;41.40;;;29.49;56.16;95795.84;4999890;28;20125;-65
2022/06/27 08:40:21;;;;;;;3.03;1.30;;;33.20;42.00;;;29.66;55.77;95792.38;4989009;28;20042;-65
2022/06/27 08:42:47;;;;;;;2.35;1.38;;;33.40;41.50;;;29.81;56.16;95793.78;4989499;28;20085;-66
2022/06/27 08:45:15;;;;;;;4.13;1.13;;;33.50;41.70;;;29.95;55.64;95794.44;5003265;28;20026;-65
2022/06/27 08:47:41;;;;;;;4.15;1.50;;;33.60;41.50;;;30.07;54.64;95797.31;4988559;28;20026;-65
2022/06/27 08:50:08;;;;;;;2.30;1.30;;;33.50;39.70;;;30.18;54.12;95790.44;5001714;28;20096;-64
2022/06/27 08:52:39;;;;;;;2.72;1.20;;;33.60;40.60;;;30.37;53.81;95781.97;4973068;28;20057;-65
2022/06/27 08:55:09;;;;;;;2.13;1.23;;;33.80;40.40;;;30.59;52.68;95785.56;4996217;28;20121;-65
2022/06/27 08:57:41;;;;;;;1.98;1.50;;;34.00;39.80;;;30.81;52.44;95776.44;4976371;28;20041;-66
2022/06/27 09:00:09;;;;;;;1.30;1.02;;;34.10;40.80;;;31.08;53.47;95781.41;5008755;28;20042;-65
2022/06/27 09:02:41;;;;;;;2.80;1.20;;;34.40;40.80;;;31.33;52.04;95788.63;5008381;28;20041;-65
2022/06/27 09:05:26;;;;;;;2.20;1.38;;;34.60;38.90;;;31.53;49.55;95780.84;4999786;28;20061;-65
2022/06/27 09:08:01;;;;;;;3.22;0.90;;;34.50;38.30;;;31.70;49.10;95786.16;4994359;28;20044;-65
2022/06/27 09:10:34;;;;;;;4.00;1.15;;;34.70;38.70;;;31.85;49.62;95792.94;5008851;28;20045;-65
2022/06/27 09:13:09;;;;;;;2.78;1.00;;;34.70;37.80;;;32.02;48.39;95792.81;5008584;28;20038;-67
2022/06/27 09:15:51;;;;;;;2.83;1.20;;;35.00;38.00;;;32.25;48.73;95796.75;4987020;28;20076;-66
2022/06/27 09:18:36;;;;;;;1.73;1.10;;;35.10;39.20;;;32.52;47.71;95789.94;5006424;28;20038;-67
2022/06/27 09:21:11;;;;;;;2.25;1.10;;;35.50;38.60;;;32.76;47.06;95783.72;4963105;28;20604;-66
2022/06/27 09:23:54;;;;;;;4.13;1.30;;;35.80;38.00;;;33.02;45.95;95785.38;5002132;28;20034;-66
2022/06/27 09:26:38;;;;;;;2.00;1.02;;;36.00;36.40;;;33.11;44.60;95784.13;5000461;28;20033;-66
2022/06/27 09:29:06;;;;;;;2.40;1.05;;;35.90;36.50;;;33.20;46.69;95786.72;5007860;28;20022;-67
2022/06/27 09:31:42;;;;;;;2.60;1.20;;;35.80;36.60;;;33.26;44.75;95774.44;5008480;28;20110;-66
2022/06/27 09:34:24;;;;;;;5.70;1.83;;;35.90;36.00;;;33.37;46.03;95778.34;5008277;28;20030;-66
2022/06/27 09:36:50;;;;;;;1.63;1.17;;;36.00;37.60;;;33.48;45.48;95782.19;5007928;28;20037;-67
2022/06/27 09:39:21;;;;;;;1.20;0.82;;;36.20;35.30;;;33.51;43.22;95769.03;5008915;28;20147;-66
2022/06/27 09:41:59;;;;;;;1.60;1.10;;;36.00;34.80;;;33.61;43.49;95757.63;5009788;28;20121;-66
2022/06/27 09:44:39;;;;;;;2.47;1.48;;;36.40;35.50;;;33.84;43.41;95761.44;4991935;28;20097;-66
2022/06/27 09:47:16;;;;;;;1.58;1.00;;;36.90;35.80;;;34.06;43.83;95760.91;5008140;28;20175;-66
2022/06/27 09:49:50;;;;;;;1.73;1.10;;;37.20;35.50;;;34.21;43.94;95753.91;4989082;28;20045;-66
2022/06/27 09:52:21;;;;;;;1.65;1.10;;;37.30;35.20;;;34.41;43.56;95757.59;5006796;28;20034;-65
2022/06/27 09:54:49;;;;;;;4.32;1.00;;;37.60;35.30;;;34.58;43.91;95750.97;5007956;28;20038;-66
2022/06/27 09:57:16;;;;;;;2.13;1.00;;;37.80;34.20;;;34.73;43.11;95754.88;4987649;28;20135;-66
2022/06/27 09:59:43;;;;;;;1.33;0.85;;;37.80;34.00;;;34.85;42.76;95757.53;4998916;28;20034;-67
2022/06/27 10:02:09;;;;;;;4.28;1.08;;;38.10;33.50;;;35.03;42.26;95761.50;5008064;28;20064;-66
2022/06/27 10:04:37;;;;;;;2.38;1.17;;;38.40;32.40;;;35.19;43.26;95756.00;4991819;28;20038;-66
2022/06/27 10:07:06;;;;;;;1.37;0.90;;;38.80;33.80;;;35.52;41.48;95756.38;5003674;28;20034;-66
2022/06/27 10:09:35;;;;;;;1.80;1.03;;;39.20;32.30;;;35.78;42.81;95753.06;5008845;28;20058;-66
2022/06/27 10:12:25;;;;;;;;;;;39.50;32.80;;;36.15;41.02;95755.38;5008539;28;20470;-66
2022/06/27 10:15:09;;;;;;;2.95;1.13;;;39.90;32.30;;;36.48;38.92;95752.91;5007836;28;19913;-66
2022/06/27 10:17:57;;;;;;;1.90;1.05;;;39.90;30.90;;;36.69;38.25;95746.22;5014834;28;20038;-67
2022/06/27 10:20:39;;;;;;;2.28;1.10;;;39.90;30.80;;;36.91;38.35;95750.91;5004072;28;20042;-66
2022/06/27 10:23:26;;;;;;;1.67;1.02;;;40.10;30.90;;;37.14;39.22;95750.88;4992042;28;20026;-67
2022/06/27 10:25:52;;;;;;;1.65;0.93;;;40.50;31.70;;;37.45;40.43;95754.50;4994132;28;20042;-67
2022/06/27 10:28:18;;;;;;;1.55;1.13;;;41.00;30.80;;;37.65;39.12;95754.00;5003240;28;20037;-66